createdAt,value
2018-12-09T00:00:06.599Z,52.54
2018-12-09T00:05:11.031Z,52.21
2018-12-09T00:10:15.507Z,52.86
2018-12-09T00:15:20.054Z,52.69
2018-12-09T00:20:24.631Z,53.09
2018-12-09T00:25:29.121Z,53.27
2018-12-09T00:30:33.870Z,54.26
2018-12-09T00:35:38.869Z,55.03
2018-12-09T00:38:08.466Z,55.44
2018-12-09T00:40:37.831Z,55.84
2018-12-09T00:43:07.291Z,56.24
2018-12-09T00:48:11.992Z,56.70
2018-12-09T00:50:41.541Z,57.03
2018-12-09T00:53:11.004Z,57.26
2018-12-09T00:55:40.770Z,57.38
2018-12-09T00:58:10.268Z,57.60
2018-12-09T01:00:39.783Z,57.71
2018-12-09T01:03:09.242Z,57.74
2018-12-09T01:05:38.731Z,57.76
2018-12-09T01:08:08.193Z,57.44
2018-12-09T01:10:37.653Z,57.09
2018-12-09T01:15:42.203Z,57.06
2018-12-09T01:18:11.700Z,57.18
2018-12-09T01:20:41.155Z,57.34
2018-12-09T01:23:10.686Z,57.44
2018-12-09T01:25:40.160Z,57.57
2018-12-09T01:28:09.643Z,57.54
2018-12-09T01:30:39.101Z,57.49
2018-12-09T01:35:43.921Z,56.86
2018-12-09T01:41:07.605Z,56.80
2018-12-09T01:46:12.611Z,56.83
2018-12-09T01:51:17.223Z,56.72
2018-12-09T01:54:24.675Z,56.54
2018-12-09T01:56:54.131Z,56.36
2018-12-09T01:59:23.593Z,56.24
2018-12-09T02:01:53.092Z,56.24
2018-12-09T02:04:22.549Z,55.98
2018-12-09T02:06:51.998Z,55.89
2018-12-09T02:11:56.407Z,56.14
2018-12-09T02:14:28.298Z,56.06
2018-12-09T02:16:57.847Z,56.05
2018-12-09T02:19:27.874Z,56.21
2018-12-09T02:24:32.602Z,56.51
2018-12-09T02:27:02.161Z,56.35
2018-12-09T02:29:31.594Z,56.53
2018-12-09T02:32:01.040Z,56.69
2018-12-09T02:34:30.637Z,56.83
2018-12-09T02:36:59.984Z,56.74
2018-12-09T02:39:29.482Z,56.70
2018-12-09T02:44:34.914Z,57.02
2018-12-09T02:47:04.559Z,57.62
2018-12-09T02:49:34.025Z,57.58
2018-12-09T02:52:03.473Z,58.06
2018-12-09T02:57:08.067Z,59.31
2018-12-09T03:02:14.604Z,60.47
2018-12-09T03:07:18.828Z,61.38
2018-12-09T03:12:23.316Z,62.50
2018-12-09T03:14:52.834Z,62.69
2018-12-09T03:17:22.287Z,63.21
2018-12-09T03:19:51.778Z,63.65
2018-12-09T03:22:21.271Z,64.18
2018-12-09T03:24:50.708Z,64.71
2018-12-09T03:27:20.182Z,65.17
2018-12-09T03:29:49.687Z,65.35
2018-12-09T03:32:19.151Z,65.96
2018-12-09T03:34:48.610Z,66.39
2018-12-09T03:39:53.388Z,66.47
2018-12-09T03:44:58.405Z,66.45
2018-12-09T03:47:46.929Z,66.37
2018-12-09T03:50:16.374Z,66.67
2018-12-09T03:52:45.898Z,66.94
2018-12-09T03:58:09.472Z,66.86
2018-12-09T04:03:14.568Z,65.78
2018-12-09T04:08:19.766Z,64.92
2018-12-09T04:10:49.283Z,64.60
2018-12-09T04:13:18.753Z,64.32
2018-12-09T04:15:49.222Z,64.04
2018-12-09T04:20:52.674Z,64.80
2018-12-09T04:23:22.167Z,64.75
2018-12-09T04:25:51.629Z,64.62
2018-12-09T04:28:21.183Z,64.57
2018-12-09T04:33:25.993Z,64.73
2018-12-09T04:35:55.485Z,64.91
2018-12-09T04:38:25.048Z,65.34
2018-12-09T04:40:54.541Z,65.28
2018-12-09T04:43:26.691Z,65.55
2018-12-09T04:45:56.239Z,65.73
2018-12-09T04:48:25.667Z,66.10
2018-12-09T04:50:55.239Z,66.54
2018-12-09T04:53:24.720Z,67.25
2018-12-09T04:55:54.174Z,67.65
2018-12-09T04:58:23.951Z,68.42
2018-12-09T05:00:57.784Z,68.95
2018-12-09T05:03:27.386Z,69.28
2018-12-09T05:05:56.957Z,69.96
2018-12-09T05:08:26.414Z,70.44
2018-12-09T05:10:55.859Z,70.62
2018-12-09T05:13:25.586Z,70.69
2018-12-09T05:15:55.044Z,70.85
2018-12-09T05:18:24.606Z,70.83
2018-12-09T05:20:54.410Z,70.77
2018-12-09T05:23:23.862Z,71.01
2018-12-09T05:25:53.317Z,70.99
2018-12-09T05:28:22.864Z,71.08
2018-12-09T05:30:52.463Z,70.89
2018-12-09T05:33:22.210Z,70.88
2018-12-09T05:35:51.747Z,70.41
2018-12-09T05:38:21.243Z,70.12
2018-12-09T05:40:50.696Z,69.89
2018-12-09T05:43:20.364Z,69.75
2018-12-09T05:45:49.886Z,69.61
2018-12-09T05:48:19.448Z,69.46
2018-12-09T05:50:49.094Z,69.37
2018-12-09T05:53:18.573Z,69.47
2018-12-09T05:55:48.092Z,69.45
2018-12-09T05:58:19.332Z,69.39
2018-12-09T06:00:47.380Z,69.28
2018-12-09T06:03:16.830Z,69.11
2018-12-09T06:05:46.322Z,69.06
2018-12-09T06:08:15.803Z,68.96
2018-12-09T06:10:45.258Z,68.87
2018-12-09T06:13:14.934Z,68.73
2018-12-09T06:15:44.410Z,68.56
2018-12-09T06:18:13.872Z,68.51
2018-12-09T06:20:43.842Z,68.72
2018-12-09T06:23:13.309Z,68.81
2018-12-09T06:25:42.767Z,68.75
2018-12-09T06:28:12.572Z,68.77
2018-12-09T06:30:42.028Z,68.80
2018-12-09T06:33:11.487Z,68.85
2018-12-09T06:35:40.966Z,68.84
2018-12-09T06:38:10.417Z,68.84
2018-12-09T06:40:39.882Z,68.85
2018-12-09T06:43:09.370Z,68.29
2018-12-09T06:45:38.835Z,67.91
2018-12-09T06:48:08.283Z,67.85
2018-12-09T06:50:37.922Z,67.77
2018-12-09T06:53:07.363Z,68.01
2018-12-09T06:55:36.809Z,68.45
2018-12-09T06:58:06.427Z,69.25
2018-12-09T07:00:35.907Z,69.98
2018-12-09T07:03:39.299Z,73.55
2018-12-09T07:06:06.937Z,74.08
2018-12-09T07:08:34.471Z,74.14
2018-12-09T07:11:02.122Z,74.00
2018-12-09T07:13:29.626Z,73.88
2018-12-09T07:15:57.034Z,73.82
2018-12-09T07:18:24.654Z,74.04
2018-12-09T07:20:52.365Z,73.74
2018-12-09T07:23:19.871Z,73.75
2018-12-09T07:25:47.301Z,73.44
2018-12-09T07:28:14.687Z,73.47
2018-12-09T07:30:42.099Z,73.64
2018-12-09T07:33:09.820Z,73.72
2018-12-09T07:35:37.224Z,73.73
2018-12-09T07:38:04.625Z,73.86
2018-12-09T07:40:32.338Z,73.80
2018-12-09T07:42:59.796Z,73.77
2018-12-09T07:45:27.187Z,73.76
2018-12-09T07:47:54.703Z,73.65
2018-12-09T07:50:22.207Z,73.92
2018-12-09T07:52:49.908Z,73.39
2018-12-09T07:55:17.604Z,73.29
2018-12-09T07:57:44.995Z,73.14
2018-12-09T08:00:12.396Z,73.08
2018-12-09T08:02:39.889Z,73.06
2018-12-09T08:05:08.381Z,72.71
2018-12-09T08:07:35.837Z,72.55
2018-12-09T08:10:04.320Z,72.33
2018-12-09T08:12:31.700Z,72.37
2018-12-09T08:14:59.177Z,71.76
2018-12-09T08:17:26.684Z,71.27
2018-12-09T08:19:54.333Z,71.24
2018-12-09T08:22:21.844Z,71.16
2018-12-09T08:24:50.229Z,71.17
2018-12-09T08:27:18.049Z,71.21
2018-12-09T08:29:45.446Z,70.96
2018-12-09T08:32:13.076Z,70.85
2018-12-09T08:34:40.468Z,70.61
2018-12-09T08:37:07.876Z,70.41
2018-12-09T08:39:35.426Z,70.60
2018-12-09T08:42:02.888Z,69.99
2018-12-09T08:44:30.293Z,70.00
2018-12-09T08:46:58.628Z,70.15
2018-12-09T08:49:26.041Z,69.49
2018-12-09T08:51:53.447Z,69.11
2018-12-09T08:54:20.876Z,68.88
2018-12-09T08:56:48.680Z,68.82
2018-12-09T08:59:16.080Z,68.89
2018-12-09T09:01:43.826Z,69.05
2018-12-09T09:04:11.240Z,68.96
2018-12-09T09:06:39.557Z,69.10
2018-12-09T09:09:07.164Z,69.44
2018-12-09T09:11:34.564Z,69.24
2018-12-09T09:14:01.957Z,69.23
2018-12-09T09:16:29.820Z,69.31
2018-12-09T09:18:57.202Z,69.01
2018-12-09T09:21:24.592Z,68.77
2018-12-09T09:23:52.222Z,69.24
2018-12-09T09:26:19.668Z,69.32
2018-12-09T09:28:47.080Z,69.37
2018-12-09T09:31:14.595Z,69.19
2018-12-09T09:33:42.212Z,69.05
2018-12-09T09:36:09.608Z,68.80
2018-12-09T09:38:37.028Z,68.88
2018-12-09T09:41:04.968Z,68.48
2018-12-09T09:43:32.368Z,68.20
2018-12-09T09:45:59.839Z,68.11
2018-12-09T09:48:27.269Z,67.83
2018-12-09T09:50:54.752Z,67.04
2018-12-09T09:53:22.770Z,67.02
2018-12-09T09:55:50.168Z,66.52
2018-12-09T09:58:17.568Z,66.55
2018-12-09T10:00:44.991Z,66.56
2018-12-09T10:03:12.475Z,66.49
2018-12-09T10:05:39.889Z,66.27
2018-12-09T10:08:07.463Z,66.21
2018-12-09T10:10:34.988Z,65.81
2018-12-09T10:13:02.961Z,65.95
2018-12-09T10:15:30.395Z,65.73
2018-12-09T10:17:57.795Z,65.78
2018-12-09T10:20:25.927Z,65.85
2018-12-09T10:22:53.442Z,65.80
2018-12-09T10:25:21.233Z,65.42
2018-12-09T10:27:48.632Z,65.57
2018-12-09T10:30:16.099Z,65.46
2018-12-09T10:32:44.075Z,64.99
2018-12-09T10:35:11.614Z,65.12
2018-12-09T10:37:39.041Z,64.89
2018-12-09T10:40:07.183Z,65.21
2018-12-09T10:42:34.581Z,65.26
2018-12-09T10:45:03.135Z,65.38
2018-12-09T10:47:30.537Z,65.84
2018-12-09T10:49:57.925Z,66.63
2018-12-09T10:52:25.491Z,66.98
2018-12-09T10:54:52.919Z,67.25
2018-12-09T10:57:20.312Z,67.60
2018-12-09T10:59:47.751Z,67.60
2018-12-09T11:02:19.479Z,67.22
2018-12-09T11:04:47.233Z,67.08
2018-12-09T11:07:14.944Z,66.77
2018-12-09T11:09:42.440Z,66.72
2018-12-09T11:12:09.906Z,66.29
2018-12-09T11:14:37.408Z,66.03
2018-12-09T11:17:05.716Z,65.86
2018-12-09T11:19:33.123Z,65.90
2018-12-09T11:22:00.714Z,65.08
2018-12-09T11:24:28.216Z,64.96
2018-12-09T11:26:55.805Z,64.85
2018-12-09T11:29:23.245Z,64.93
2018-12-09T11:31:50.639Z,64.81
2018-12-09T11:34:18.529Z,64.59
2018-12-09T11:36:46.257Z,64.45
2018-12-09T11:39:13.645Z,64.00
2018-12-09T11:41:41.342Z,63.88
2018-12-09T11:44:08.951Z,63.64
2018-12-09T11:46:36.352Z,63.06
2018-12-09T11:49:03.839Z,62.70
2018-12-09T11:51:31.716Z,62.08
2018-12-09T11:53:59.417Z,61.64
2018-12-09T11:56:27.132Z,61.69
2018-12-09T11:58:54.749Z,61.27
2018-12-09T12:01:22.148Z,61.08
2018-12-09T12:03:49.547Z,60.65
2018-12-09T12:06:17.297Z,60.93
2018-12-09T12:08:44.697Z,60.81
2018-12-09T12:11:12.095Z,60.53
2018-12-09T12:13:39.647Z,60.10
2018-12-09T12:16:07.039Z,60.06
2018-12-09T12:18:35.057Z,59.15
2018-12-09T12:21:02.512Z,58.73
2018-12-09T12:23:29.913Z,59.04
2018-12-09T12:25:57.367Z,58.72
2018-12-09T12:28:25.116Z,58.96
2018-12-09T12:30:52.503Z,58.55
2018-12-09T12:33:19.916Z,58.65
2018-12-09T12:35:47.688Z,58.59
2018-12-09T12:38:15.093Z,58.52
2018-12-09T12:40:42.487Z,58.61
2018-12-09T12:43:10.263Z,59.07
2018-12-09T12:45:37.651Z,59.67
2018-12-09T12:48:05.935Z,59.81
2018-12-09T12:50:33.561Z,59.96
2018-12-09T12:53:00.955Z,60.38
2018-12-09T12:55:28.422Z,60.80
2018-12-09T12:57:56.123Z,61.74
2018-12-09T13:00:23.583Z,62.62
2018-12-09T13:02:51.464Z,63.59
2018-12-09T13:05:18.893Z,64.32
2018-12-09T13:07:46.349Z,64.81
2018-12-09T13:10:13.837Z,65.02
2018-12-09T13:12:41.385Z,65.32
2018-12-09T13:15:08.937Z,65.64
2018-12-09T13:17:36.401Z,65.56
2018-12-09T13:20:05.447Z,65.80
2018-12-09T13:22:32.891Z,65.95
2018-12-09T13:25:00.287Z,66.44
2018-12-09T13:27:28.069Z,66.66
2018-12-09T13:29:55.463Z,66.59
2018-12-09T13:32:22.877Z,66.63
2018-12-09T13:34:50.467Z,66.93
2018-12-09T13:37:18.583Z,67.14
2018-12-09T13:39:46.072Z,67.21
2018-12-09T13:42:13.842Z,66.92
2018-12-09T13:44:41.634Z,66.67
2018-12-09T13:47:09.025Z,66.40
2018-12-09T13:49:36.613Z,66.18
2018-12-09T13:52:04.004Z,66.11
2018-12-09T13:54:31.408Z,65.93
2018-12-09T13:56:59.156Z,65.74
2018-12-09T13:59:27.581Z,65.15
2018-12-09T14:01:55.156Z,64.98
2018-12-09T14:04:22.683Z,64.80
2018-12-09T14:06:50.094Z,64.41
2018-12-09T14:09:17.487Z,63.86
2018-12-09T14:11:44.995Z,63.88
2018-12-09T14:14:12.675Z,63.89
2018-12-09T14:16:40.089Z,63.65
2018-12-09T14:19:07.601Z,63.77
2018-12-09T14:21:35.293Z,64.00
2018-12-09T14:24:02.694Z,63.74
2018-12-09T14:26:30.513Z,63.86
2018-12-09T14:28:58.463Z,63.85
2018-12-09T14:31:27.723Z,63.92
2018-12-09T14:33:55.441Z,63.89
2018-12-09T14:36:24.186Z,64.10
2018-12-09T14:38:51.582Z,64.27
2018-12-09T14:41:19.151Z,64.20
2018-12-09T14:43:46.556Z,64.11
2018-12-09T14:46:13.998Z,64.25
2018-12-09T14:48:41.739Z,64.14
2018-12-09T14:51:09.543Z,64.26
2018-12-09T14:53:37.176Z,63.98
2018-12-09T14:56:04.809Z,64.01
2018-12-09T14:58:32.207Z,64.35
2018-12-09T15:01:00.001Z,64.10
2018-12-09T15:03:27.483Z,64.33
2018-12-09T15:05:54.875Z,64.37
2018-12-09T15:08:23.089Z,64.24
2018-12-09T15:10:50.789Z,64.15
2018-12-09T15:13:18.547Z,64.13
2018-12-09T15:15:45.947Z,64.13
2018-12-09T15:18:13.557Z,64.05
2018-12-09T15:20:41.761Z,63.91
2018-12-09T15:23:09.355Z,64.17
2018-12-09T15:25:36.855Z,64.15
2018-12-09T15:28:04.649Z,64.30
2018-12-09T15:30:32.047Z,64.63
2018-12-09T15:32:59.460Z,64.79
2018-12-09T15:35:26.860Z,64.98
2018-12-09T15:37:55.184Z,65.28
2018-12-09T15:40:22.635Z,65.17
2018-12-09T15:42:50.412Z,65.83
2018-12-09T15:45:18.212Z,66.46
2018-12-09T15:47:45.748Z,67.05
2018-12-09T15:50:13.156Z,67.56
2018-12-09T15:52:40.549Z,67.90
2018-12-09T15:55:08.164Z,68.42
2018-12-09T15:57:35.592Z,68.66
2018-12-09T16:00:04.290Z,68.82
2018-12-09T16:02:31.742Z,69.17
2018-12-09T16:04:59.149Z,69.20
2018-12-09T16:07:27.036Z,69.18
2018-12-09T16:09:54.684Z,69.33
2018-12-09T16:12:23.276Z,69.46
2018-12-09T16:14:50.672Z,69.56
2018-12-09T16:17:18.401Z,69.77
2018-12-09T16:19:46.049Z,70.04
2018-12-09T16:22:13.447Z,69.73
2018-12-09T16:24:41.033Z,69.71
2018-12-09T16:27:08.465Z,69.82
2018-12-09T16:29:35.855Z,69.81
2018-12-09T16:32:03.329Z,69.83
2018-12-09T16:34:30.726Z,69.34
2018-12-09T16:36:58.308Z,69.50
2018-12-09T16:39:25.850Z,69.37
2018-12-09T16:41:53.253Z,69.30
2018-12-09T16:44:21.233Z,69.16
2018-12-09T16:46:48.656Z,69.23
2018-12-09T16:49:16.052Z,68.68
2018-12-09T16:51:44.191Z,68.89
2018-12-09T16:54:11.741Z,68.79
2018-12-09T16:56:39.140Z,68.56
2018-12-09T16:59:06.918Z,68.48
2018-12-09T17:01:34.738Z,68.49
2018-12-09T17:04:02.133Z,68.27
2018-12-09T17:06:29.722Z,68.51
2018-12-09T17:08:57.433Z,68.21
2018-12-09T17:11:24.836Z,68.51
2018-12-09T17:13:52.623Z,68.22
2018-12-09T17:16:20.133Z,68.19
2018-12-09T17:18:47.531Z,68.39
2018-12-09T17:21:14.976Z,68.63
2018-12-09T17:23:42.557Z,68.58
2018-12-09T17:26:10.461Z,68.90
2018-12-09T17:28:38.156Z,68.64
2018-12-09T17:31:05.758Z,68.67
2018-12-09T17:33:33.158Z,68.88
2018-12-09T17:36:00.558Z,69.34
2018-12-09T17:38:27.979Z,69.60
2018-12-09T17:40:55.447Z,69.42
2018-12-09T17:43:23.671Z,69.91
2018-12-09T17:45:51.216Z,69.98
2018-12-09T17:48:18.623Z,69.53
2018-12-09T17:50:46.027Z,69.63
2018-12-09T17:53:13.451Z,69.26
2018-12-09T17:55:40.848Z,69.62
2018-12-09T17:58:08.268Z,69.64
2018-12-09T18:00:35.688Z,69.26
2018-12-09T18:03:03.074Z,69.32
2018-12-09T18:05:30.480Z,69.28
2018-12-09T18:07:58.212Z,69.45
2018-12-09T18:10:25.614Z,69.64
2018-12-09T18:12:53.084Z,69.65
2018-12-09T18:15:21.907Z,69.74
2018-12-09T18:17:49.306Z,69.63
2018-12-09T18:20:16.701Z,69.83
2018-12-09T18:22:44.338Z,69.94
2018-12-09T18:25:12.285Z,69.64
2018-12-09T18:27:39.687Z,69.78
2018-12-09T18:30:07.172Z,70.12
2018-12-09T18:32:35.298Z,70.10
2018-12-09T18:35:02.829Z,70.15
2018-12-09T18:37:30.285Z,70.05
2018-12-09T18:39:57.751Z,70.21
2018-12-09T18:42:25.151Z,70.41
2018-12-09T18:44:52.906Z,70.33
2018-12-09T18:47:20.336Z,70.36
2018-12-09T18:49:47.926Z,70.44
2018-12-09T18:52:15.392Z,70.49
2018-12-09T18:54:42.801Z,70.41
2018-12-09T18:57:10.333Z,70.51
2018-12-09T18:59:37.888Z,70.74
2018-12-09T19:02:05.421Z,71.08
2018-12-09T19:04:33.323Z,71.03
2018-12-09T19:07:00.877Z,71.00
2018-12-09T19:09:28.357Z,71.22
2018-12-09T19:11:56.113Z,71.38
2018-12-09T19:14:23.799Z,71.25
2018-12-09T19:16:51.382Z,71.62
2018-12-09T19:19:18.795Z,71.53
2018-12-09T19:21:46.291Z,71.62
2018-12-09T19:24:13.714Z,71.57
2018-12-09T19:26:41.160Z,71.68
2018-12-09T19:29:08.635Z,71.76
2018-12-09T19:31:36.055Z,71.98
2018-12-09T19:34:03.625Z,71.90
2018-12-09T19:36:31.166Z,71.79
2018-12-09T19:38:59.307Z,71.92
2018-12-09T19:41:26.735Z,72.04
2018-12-09T19:43:54.443Z,72.14
2018-12-09T19:46:21.850Z,72.08
2018-12-09T19:48:49.339Z,72.09
2018-12-09T19:51:16.975Z,72.01
2018-12-09T19:53:44.376Z,72.02
2018-12-09T19:56:12.499Z,71.93
2018-12-09T19:58:40.024Z,71.95
2018-12-09T20:01:07.439Z,72.04
2018-12-09T20:03:35.222Z,71.97
2018-12-09T20:06:02.919Z,72.00
2018-12-09T20:08:30.612Z,71.84
2018-12-09T20:10:58.024Z,72.03
2018-12-09T20:13:25.671Z,72.03
2018-12-09T20:15:53.169Z,72.12
2018-12-09T20:18:20.572Z,72.13
2018-12-09T20:20:48.159Z,72.41
2018-12-09T20:23:16.348Z,72.39
2018-12-09T20:25:44.040Z,72.12
2018-12-09T20:28:11.736Z,72.23
2018-12-09T20:30:39.244Z,72.23
2018-12-09T20:33:06.921Z,72.41
2018-12-09T20:35:34.498Z,72.31
2018-12-09T20:38:01.900Z,72.40
2018-12-09T20:40:29.363Z,72.83
2018-12-09T20:42:56.908Z,72.80
2018-12-09T20:45:24.304Z,72.76
2018-12-09T20:47:51.700Z,72.80
2018-12-09T20:50:19.373Z,72.63
2018-12-09T20:52:47.464Z,72.72
2018-12-09T20:55:14.893Z,72.75
2018-12-09T20:57:42.354Z,72.64
2018-12-09T21:00:09.880Z,72.63
2018-12-09T21:02:37.265Z,72.36
2018-12-09T21:05:05.141Z,72.33
2018-12-09T21:07:32.571Z,72.60
2018-12-09T21:09:59.958Z,72.79
2018-12-09T21:12:27.526Z,72.53
2018-12-09T21:14:54.929Z,72.40
2018-12-09T21:17:22.333Z,72.59
2018-12-09T21:19:49.785Z,72.79
2018-12-09T21:22:17.188Z,72.63
2018-12-09T21:24:44.744Z,72.69
2018-12-09T21:27:12.241Z,73.00
2018-12-09T21:29:39.629Z,73.00
2018-12-09T21:32:07.023Z,73.26
2018-12-09T21:34:34.617Z,73.36
2018-12-09T21:37:02.408Z,73.43
2018-12-09T21:39:29.810Z,73.62
2018-12-09T21:41:57.226Z,73.97
2018-12-09T21:44:25.153Z,73.94
2018-12-09T21:46:52.534Z,73.96
2018-12-09T21:49:21.177Z,73.95
2018-12-09T21:51:48.872Z,74.20
2018-12-09T21:54:16.379Z,74.01
2018-12-09T21:56:44.238Z,73.99
2018-12-09T21:59:11.731Z,73.97
2018-12-09T22:01:39.354Z,74.22
2018-12-09T22:04:06.805Z,74.18
2018-12-09T22:06:34.231Z,74.25
2018-12-09T22:09:02.055Z,74.26
2018-12-09T22:11:29.648Z,74.28
2018-12-09T22:13:57.239Z,74.24
2018-12-09T22:16:24.689Z,74.72
2018-12-09T22:18:52.143Z,75.00
2018-12-09T22:21:20.295Z,74.75
2018-12-09T22:23:47.688Z,75.07
2018-12-09T22:26:15.515Z,75.03
2018-12-09T22:28:42.912Z,75.73
2018-12-09T22:31:10.403Z,75.74
2018-12-09T22:33:37.883Z,75.97
2018-12-09T22:36:05.587Z,76.32
2018-12-09T22:38:33.275Z,76.27
2018-12-09T22:41:00.869Z,75.66
2018-12-09T22:43:28.257Z,75.77
2018-12-09T22:45:56.111Z,76.40
2018-12-09T22:48:23.583Z,76.55
2018-12-09T22:50:50.980Z,76.81
2018-12-09T22:53:18.377Z,76.82
2018-12-09T22:55:46.653Z,77.05
2018-12-09T22:58:14.170Z,76.68
2018-12-09T23:00:45.241Z,76.79
2018-12-09T23:03:12.833Z,76.30
2018-12-09T23:05:40.331Z,76.25
2018-12-09T23:08:08.075Z,76.26
2018-12-09T23:10:36.496Z,76.08
2018-12-09T23:13:03.959Z,76.48
2018-12-09T23:15:31.416Z,75.95
2018-12-09T23:17:58.869Z,76.28
2018-12-09T23:20:26.390Z,76.34
2018-12-09T23:22:53.987Z,76.31
2018-12-09T23:25:21.426Z,76.26
2018-12-09T23:27:48.823Z,75.95
2018-12-09T23:30:17.023Z,75.93
2018-12-09T23:32:44.580Z,76.17
2018-12-09T23:35:11.967Z,76.15
2018-12-09T23:37:39.367Z,76.14
2018-12-09T23:40:07.199Z,76.06
2018-12-09T23:42:34.606Z,76.00
2018-12-09T23:45:02.067Z,75.90
2018-12-09T23:47:29.487Z,75.76
2018-12-09T23:49:56.983Z,75.95
2018-12-09T23:52:24.379Z,76.03
2018-12-09T23:54:51.958Z,75.74
2018-12-09T23:57:19.506Z,75.88
2018-12-09T23:59:46.903Z,75.77
